Time;durP1;ratioP1;P1;durP2;ratioP2;P2;SDS_P1;SDS_P2;PMS_P1;PMS_P2;Temp;Humidity;BMP_temperature;BMP_pressure;BME280_temperature;BME280_humidity;BME280_pressure;Samples;Min_cycle;Max_cycle;Signal;HPM_P1;HPM_P2
2023/01/11 00:00:28;;;;;;;4.90;1.73;;;;;;;;;;5029956;28;20866;-77
2023/01/11 00:02:58;;;;;;;6.20;1.67;;;;;;;;;;5030965;28;20194;-76
2023/01/11 00:05:25;;;;;;;4.27;1.97;;;;;;;;;;5024749;28;20208;-77
2023/01/11 00:07:51;;;;;;;4.20;1.53;;;;;;;;;;5028762;28;20877;-77
2023/01/11 00:10:18;;;;;;;5.13;1.80;;;;;;;;;;5022511;28;20244;-77
2023/01/11 00:12:44;;;;;;;4.70;1.93;;;;;;;;;;5023679;28;20182;-76
2023/01/11 00:15:11;;;;;;;5.67;1.90;;;;;;;;;;5027956;28;20206;-74
2023/01/11 00:17:38;;;;;;;3.37;1.73;;;;;;;;;;5027668;28;20182;-74
2023/01/11 00:20:05;;;;;;;4.83;1.67;;;;;;;;;;5009839;28;20194;-74
2023/01/11 00:22:31;;;;;;;4.53;1.73;;;;;;;;;;5016370;28;20244;-74
2023/01/11 00:24:57;;;;;;;6.30;2.30;;;;;;;;;;5007405;28;20218;-74
2023/01/11 00:27:23;;;;;;;9.23;2.07;;;;;;;;;;5027002;28;20190;-74
2023/01/11 00:29:50;;;;;;;5.30;2.27;;;;;;;;;;5034702;28;20190;-76
2023/01/11 00:32:16;;;;;;;5.80;1.80;;;;;;;;;;5010620;28;20179;-74
2023/01/11 00:34:42;;;;;;;7.57;1.90;;;;;;;;;;5027327;28;20222;-76
2023/01/11 00:37:09;;;;;;;4.67;1.67;;;;;;;;;;5026375;28;20237;-74
2023/01/11 00:39:35;;;;;;;4.40;1.67;;;;;;;;;;5029861;28;20232;-74
2023/01/11 00:50:16;;;;;;;4.20;1.70;;;;;;;;;;5024880;28;20205;-73
2023/01/11 00:52:42;;;;;;;5.70;1.93;;;;;;;;;;5027828;28;20183;-76
2023/01/11 00:55:08;;;;;;;5.40;1.70;;;;;;;;;;5029432;28;20245;-76
2023/01/11 00:57:35;;;;;;;5.30;1.97;;;;;;;;;;5024889;28;20249;-73
2023/01/11 01:00:02;;;;;;;5.30;2.10;;;;;;;;;;5027729;28;20206;-73
2023/01/11 01:02:28;;;;;;;5.73;1.53;;;;;;;;;;5021323;28;20180;-73
2023/01/11 01:04:57;;;;;;;4.23;1.60;;;;;;;;;;5023820;28;20273;-73
2023/01/11 01:07:24;;;;;;;4.83;1.53;;;;;;;;;;5024964;28;20233;-74
2023/01/11 01:09:54;;;;;;;7.33;1.90;;;;;;;;;;5010790;28;20183;-74
2023/01/11 01:15:05;;;;;;;5.30;1.60;;;;;;;;;;5026214;28;20217;-73
2023/01/11 01:17:31;;;;;;;5.73;1.70;;;;;;;;;;5024736;28;20255;-74
2023/01/11 01:19:57;;;;;;;5.07;1.80;;;;;;;;;;5027515;28;20183;-74
2023/01/11 01:22:24;;;;;;;5.40;1.83;;;;;;;;;;5020662;28;20179;-74
2023/01/11 01:24:50;;;;;;;3.53;1.70;;;;;;;;;;5024691;28;20209;-73
2023/01/11 01:27:16;;;;;;;3.90;1.57;;;;;;;;;;5021487;28;20183;-74
2023/01/11 01:29:43;;;;;;;3.07;1.40;;;;;;;;;;5026208;28;20241;-74
2023/01/11 01:32:09;;;;;;;5.20;1.70;;;;;;;;;;5027228;28;20265;-73
2023/01/11 01:34:36;;;;;;;4.53;1.80;;;;;;;;;;5027488;28;20318;-74
2023/01/11 01:37:03;;;;;;;5.57;1.63;;;;;;;;;;5024909;28;20190;-74
2023/01/11 01:39:29;;;;;;;3.57;1.77;;;;;;;;;;5025604;28;20240;-74
2023/01/11 01:41:55;;;;;;;4.43;1.77;;;;;;;;;;5022636;28;20182;-77
2023/01/11 01:44:40;;;;;;;5.03;1.73;;;;;;;;;;5024238;28;20222;-74
2023/01/11 01:47:06;;;;;;;4.80;1.60;;;;;;;;;;5024701;28;20202;-74
2023/01/11 01:49:33;;;;;;;3.97;2.10;;;;;;;;;;5026067;28;20186;-73
2023/01/11 01:51:59;;;;;;;2.83;1.57;;;;;;;;;;5027283;28;20183;-74
2023/01/11 01:54:30;;;;;;;8.07;1.77;;;;;;;;;;5025429;28;20677;-74
2023/01/11 01:57:00;;;;;;;5.20;1.53;;;;;;;;;;5025178;28;20213;-74
2023/01/11 01:59:29;;;;;;;2.93;1.53;;;;;;;;;;5009361;28;20178;-74
2023/01/11 02:01:55;;;;;;;4.87;1.63;;;;;;;;;;5024829;28;20229;-74
2023/01/11 02:04:24;;;;;;;4.17;1.57;;;;;;;;;;5007281;28;20193;-74
2023/01/11 02:06:52;;;;;;;2.93;1.70;;;;;;;;;;5025177;28;20174;-74
2023/01/11 02:09:26;;;;;;;8.77;4.30;;;;;;;;;;5024020;28;20226;-74
2023/01/11 02:11:53;;;;;;;4.70;2.07;;;;;;;;;;5023437;28;20178;-73
2023/01/11 02:14:19;;;;;;;4.57;1.80;;;;;;;;;;5034630;28;20815;-74
2023/01/11 02:16:46;;;;;;;3.43;1.57;;;;;;;;;;5022974;28;20178;-74
2023/01/11 02:19:17;;;;;;;6.07;1.90;;;;;;;;;;5024868;28;20182;-74
2023/01/11 02:21:53;;;;;;;4.03;1.53;;;;;;;;;;5024030;28;20281;-74
2023/01/11 02:24:19;;;;;;;4.73;1.63;;;;;;;;;;5024824;28;20174;-74
2023/01/11 02:27:08;;;;;;;4.87;1.83;;;;;;;;;;5025977;28;20199;-74
2023/01/11 02:29:53;;;;;;;3.30;1.70;;;;;;;;;;5026107;28;20186;-74
2023/01/11 02:32:29;;;;;;;3.53;1.53;;;;;;;;;;5017897;28;20186;-74
2023/01/11 02:35:06;;;;;;;4.87;1.63;;;;;;;;;;5026713;28;20209;-74
2023/01/11 02:37:49;;;;;;;3.77;1.70;;;;;;;;;;5024764;28;20645;-74
2023/01/11 02:40:16;;;;;;;3.90;1.70;;;;;;;;;;5022487;28;20710;-74
2023/01/11 02:45:48;;;;;;;2.53;1.53;;;;;;;;;;5023220;28;20624;-74
2023/01/11 02:48:20;;;;;;;6.00;2.03;;;;;;;;;;5010028;28;20827;-74
2023/01/11 02:50:46;;;;;;;4.40;1.83;;;;;;;;;;5024853;28;20520;-74
2023/01/11 02:53:12;;;;;;;4.57;1.77;;;;;;;;;;5022929;28;20287;-74
2023/01/11 02:55:41;;;;;;;2.57;1.77;;;;;;;;;;5030035;28;20209;-74
2023/01/11 02:58:09;;;;;;;3.17;1.50;;;;;;;;;;5028753;28;20201;-74
2023/01/11 03:00:39;;;;;;;4.10;1.70;;;;;;;;;;5029264;28;20182;-74
2023/01/11 03:03:07;;;;;;;4.63;1.70;;;;;;;;;;5029577;28;20621;-74
2023/01/11 03:05:35;;;;;;;4.50;1.80;;;;;;;;;;5029209;28;20198;-74
2023/01/11 03:08:20;;;;;;;4.07;1.80;;;;;;;;;;5029438;28;20211;-74
2023/01/11 03:10:52;;;;;;;6.17;1.73;;;;;;;;;;5027591;28;20265;-74
2023/01/11 03:13:35;;;;;;;3.40;1.80;;;;;;;;;;5028509;28;20185;-74
2023/01/11 03:16:08;;;;;;;2.80;1.57;;;;;;;;;;5027978;28;20217;-74
2023/01/11 03:18:39;;;;;;;6.43;1.97;;;;;;;;;;5029533;28;20885;-74
2023/01/11 03:21:11;;;;;;;2.90;1.73;;;;;;;;;;5028446;28;20233;-74
2023/01/11 03:23:37;;;;;;;5.57;1.93;;;;;;;;;;5029089;28;20217;-74
2023/01/11 03:26:15;;;;;;;5.10;1.80;;;;;;;;;;5029180;28;20202;-74
2023/01/11 03:28:52;;;;;;;3.93;1.90;;;;;;;;;;5027862;28;20225;-74
2023/01/11 03:31:32;;;;;;;5.33;2.00;;;;;;;;;;5026379;28;20186;-74
2023/01/11 03:33:58;;;;;;;4.33;2.03;;;;;;;;;;5026308;28;20232;-74
2023/01/11 03:36:33;;;;;;;2.77;1.60;;;;;;;;;;5027557;28;20281;-74
2023/01/11 03:39:02;;;;;;;2.50;1.57;;;;;;;;;;5018717;28;20224;-74
2023/01/11 03:41:30;;;;;;;3.83;1.60;;;;;;;;;;5012588;28;20902;-74
2023/01/11 03:43:59;;;;;;;2.57;1.60;;;;;;;;;;5025544;28;20640;-74
2023/01/11 03:46:25;;;;;;;3.83;1.87;;;;;;;;;;5028898;28;20644;-74
2023/01/11 03:48:57;;;;;;;2.77;1.30;;;;;;;;;;5028427;28;20191;-74
2023/01/11 03:51:26;;;;;;;4.53;2.03;;;;;;;;;;5024467;28;20194;-74
2023/01/11 03:53:53;;;;;;;2.40;1.60;;;;;;;;;;5029918;28;20648;-74
2023/01/11 03:56:23;;;;;;;4.00;1.67;;;;;;;;;;5029175;28;20186;-74
2023/01/11 03:58:49;;;;;;;2.73;1.80;;;;;;;;;;5027726;28;20183;-74
2023/01/11 04:01:15;;;;;;;5.17;1.57;;;;;;;;;;5029320;28;20174;-74
2023/01/11 04:03:41;;;;;;;3.17;1.57;;;;;;;;;;5026989;28;20198;-74
2023/01/11 04:06:09;;;;;;;3.20;1.57;;;;;;;;;;5008556;28;20202;-74
2023/01/11 04:08:35;;;;;;;2.73;1.60;;;;;;;;;;5022357;28;20186;-74
2023/01/11 04:11:03;;;;;;;3.00;1.60;;;;;;;;;;5026787;28;20217;-74
2023/01/11 04:13:29;;;;;;;3.00;1.80;;;;;;;;;;5028256;28;20232;-74
2023/01/11 04:15:56;;;;;;;4.20;1.60;;;;;;;;;;5004053;28;20203;-74
2023/01/11 04:18:22;;;;;;;5.10;2.00;;;;;;;;;;5007036;28;20186;-74
2023/01/11 04:20:48;;;;;;;4.43;1.90;;;;;;;;;;5023734;28;20649;-74
2023/01/11 04:23:14;;;;;;;4.93;1.80;;;;;;;;;;5025641;28;20179;-74
2023/01/11 04:25:40;;;;;;;2.63;1.50;;;;;;;;;;5028810;28;20229;-73
2023/01/11 04:28:06;;;;;;;3.60;2.67;;;;;;;;;;5027726;28;20188;-73
2023/01/11 04:30:32;;;;;;;3.37;1.83;;;;;;;;;;5022870;28;20889;-74
2023/01/11 04:32:59;;;;;;;4.97;2.17;;;;;;;;;;5024937;28;20733;-74
2023/01/11 04:35:25;;;;;;;4.00;1.60;;;;;;;;;;5024278;28;20234;-74
2023/01/11 04:37:56;;;;;;;2.70;1.67;;;;;;;;;;5024834;28;20190;-74
2023/01/11 04:40:22;;;;;;;4.67;1.70;;;;;;;;;;5025724;28;20179;-74
2023/01/11 04:42:48;;;;;;;3.83;1.60;;;;;;;;;;5026858;28;20221;-74
2023/01/11 04:45:14;;;;;;;3.33;1.63;;;;;;;;;;5027941;28;20210;-74
2023/01/11 04:47:41;;;;;;;2.77;2.00;;;;;;;;;;5025951;28;20183;-74
2023/01/11 04:50:07;;;;;;;2.43;1.60;;;;;;;;;;5026158;28;20269;-74
2023/01/11 04:52:34;;;;;;;6.60;3.33;;;;;;;;;;5033510;28;20190;-74
2023/01/11 04:55:00;;;;;;;2.53;1.80;;;;;;;;;;5023444;28;20217;-74
2023/01/11 04:57:26;;;;;;;3.60;2.03;;;;;;;;;;5023569;28;20183;-74
2023/01/11 04:59:52;;;;;;;4.00;2.10;;;;;;;;;;5027223;28;20289;-74
2023/01/11 05:02:18;;;;;;;3.20;1.70;;;;;;;;;;5004388;28;20187;-74
2023/01/11 05:04:44;;;;;;;2.43;1.40;;;;;;;;;;5025287;28;20710;-74
2023/01/11 05:07:11;;;;;;;1.73;1.43;;;;;;;;;;5022053;28;20201;-74
2023/01/11 05:09:37;;;;;;;4.43;1.70;;;;;;;;;;5021230;28;20186;-74
2023/01/11 05:12:03;;;;;;;2.50;1.30;;;;;;;;;;5025159;28;20280;-74
2023/01/11 05:14:30;;;;;;;3.67;2.30;;;;;;;;;;5021361;28;20199;-74
2023/01/11 05:16:56;;;;;;;4.23;2.33;;;;;;;;;;5023365;28;20696;-74
2023/01/11 05:19:22;;;;;;;3.73;1.50;;;;;;;;;;5024583;28;20206;-74
2023/01/11 05:21:48;;;;;;;3.07;1.50;;;;;;;;;;5026840;28;20185;-74
2023/01/11 05:24:16;;;;;;;2.73;1.70;;;;;;;;;;5025098;28;20269;-74
2023/01/11 05:26:42;;;;;;;2.77;1.60;;;;;;;;;;5007802;28;20193;-73
2023/01/11 05:29:10;;;;;;;4.90;1.73;;;;;;;;;;5023896;28;20186;-74
2023/01/11 05:31:37;;;;;;;3.13;1.73;;;;;;;;;;5025572;28;20187;-74
2023/01/11 05:34:03;;;;;;;2.70;1.67;;;;;;;;;;5020706;28;20218;-74
2023/01/11 05:36:29;;;;;;;2.77;1.70;;;;;;;;;;5023941;28;20203;-74
2023/01/11 05:38:56;;;;;;;4.53;1.97;;;;;;;;;;5021273;28;20191;-74
2023/01/11 05:41:23;;;;;;;4.40;1.77;;;;;;;;;;5026773;28;20642;-74
2023/01/11 05:46:36;;;;;;;2.88;1.65;;;;;;;;;;5014057;28;20486;-74
2023/01/11 05:49:03;;;;;;;2.90;1.70;;;;;;;;;;5021582;28;20714;-74
2023/01/11 05:51:31;;;;;;;3.77;1.80;;;;;;;;;;5024312;28;20661;-74
2023/01/11 05:53:57;;;;;;;2.50;1.70;;;;;;;;;;5030632;28;20305;-74
2023/01/11 05:56:24;;;;;;;3.10;1.80;;;;;;;;;;5028349;28;20244;-74
2023/01/11 05:58:51;;;;;;;2.63;1.67;;;;;;;;;;5025596;28;20174;-74
2023/01/11 06:01:18;;;;;;;3.63;1.97;;;;;;;;;;5024975;28;20186;-74
2023/01/11 06:03:44;;;;;;;3.60;1.70;;;;;;;;;;5024486;28;20654;-74
2023/01/11 06:06:11;;;;;;;2.63;1.90;;;;;;;;;;5006506;28;20214;-74
2023/01/11 06:08:37;;;;;;;4.10;1.83;;;;;;;;;;5021925;28;20186;-74
2023/01/11 06:11:03;;;;;;;3.57;1.63;;;;;;;;;;5025522;28;20197;-75
2023/01/11 06:13:29;;;;;;;3.17;1.90;;;;;;;;;;5023203;28;20274;-74
2023/01/11 06:16:02;;;;;;;3.55;2.28;;;;;;;;;;5019873;28;20417;-74
2023/01/11 06:18:30;;;;;;;3.07;1.90;;;;;;;;;;5019308;28;20237;-76
2023/01/11 06:20:56;;;;;;;3.03;1.77;;;;;;;;;;5019333;28;20316;-75
2023/01/11 06:23:23;;;;;;;3.70;1.60;;;;;;;;;;5004733;28;20182;-76
2023/01/11 06:25:49;;;;;;;4.97;1.90;;;;;;;;;;5022013;28;20284;-76
2023/01/11 06:28:16;;;;;;;4.03;2.00;;;;;;;;;;5021979;28;20182;-75
2023/01/11 06:30:42;;;;;;;5.63;2.40;;;;;;;;;;5023501;28;20183;-76
2023/01/11 06:33:08;;;;;;;4.27;2.30;;;;;;;;;;5018878;28;20190;-77
2023/01/11 06:35:41;;;;;;;3.83;2.40;;;;;;;;;;5024419;28;20220;-76
2023/01/11 06:38:08;;;;;;;3.83;2.37;;;;;;;;;;5027199;28;20175;-78
2023/01/11 06:40:35;;;;;;;4.43;1.90;;;;;;;;;;5025395;28;20267;-77
2023/01/11 06:43:02;;;;;;;3.97;2.50;;;;;;;;;;5027338;28;20237;-76
2023/01/11 06:45:28;;;;;;;4.50;2.03;;;;;;;;;;5025948;28;20221;-76
2023/01/11 06:47:54;;;;;;;4.82;2.15;;;;;;;;;;5029791;28;20429;-78
2023/01/11 06:50:20;;;;;;;4.33;2.00;;;;;;;;;;5030506;28;20190;-78
2023/01/11 06:52:53;;;;;;;4.75;2.42;;;;;;;;;;5031093;28;20933;-78
2023/01/11 06:55:20;;;;;;;3.23;1.73;;;;;;;;;;5030629;28;20218;-78
2023/01/11 06:57:46;;;;;;;6.18;3.03;;;;;;;;;;5027353;28;21019;-77
2023/01/11 07:00:13;;;;;;;2.77;2.00;;;;;;;;;;5031908;28;20189;-78
2023/01/11 07:02:39;;;;;;;3.30;1.70;;;;;;;;;;5030808;28;20334;-76
2023/01/11 07:05:05;;;;;;;3.13;1.90;;;;;;;;;;5033484;28;20206;-76
2023/01/11 07:07:31;;;;;;;3.50;1.70;;;;;;;;;;5028003;28;20473;-76
2023/01/11 07:09:57;;;;;;;3.67;1.80;;;;;;;;;;5030635;28;20265;-75
2023/01/11 07:12:23;;;;;;;2.73;1.77;;;;;;;;;;5030780;28;20179;-76
2023/01/11 07:14:49;;;;;;;6.57;3.00;;;;;;;;;;5030685;28;20240;-76
2023/01/11 07:17:15;;;;;;;4.00;2.20;;;;;;;;;;5028875;28;20244;-76
2023/01/11 07:19:42;;;;;;;3.70;1.80;;;;;;;;;;5028259;28;20664;-75
2023/01/11 07:22:08;;;;;;;1.83;1.40;;;;;;;;;;5030030;28;20671;-76
2023/01/11 07:24:34;;;;;;;2.03;1.43;;;;;;;;;;5030163;28;20206;-76
2023/01/11 07:27:01;;;;;;;3.07;1.63;;;;;;;;;;5029355;28;20202;-75
2023/01/11 07:29:28;;;;;;;3.03;1.80;;;;;;;;;;5033531;28;20174;-75
2023/01/11 07:31:54;;;;;;;2.87;1.50;;;;;;;;;;5041131;28;20329;-75
2023/01/11 07:34:20;;;;;;;1.93;1.50;;;;;;;;;;5029779;28;20301;-75
2023/01/11 07:36:46;;;;;;;3.27;1.87;;;;;;;;;;5028474;28;20309;-76
2023/01/11 07:39:12;;;;;;;2.83;1.70;;;;;;;;;;5030594;28;20205;-76
2023/01/11 07:44:23;;;;;;;2.83;1.50;;;;;;;;;;5028971;28;20203;-76
2023/01/11 07:46:49;;;;;;;1.93;1.33;;;;;;;;;;5026233;28;20722;-75
2023/01/11 07:49:15;;;;;;;2.87;1.27;;;;;;;;;;5029350;28;20171;-75
2023/01/11 07:51:41;;;;;;;3.00;1.50;;;;;;;;;;5033038;28;20604;-76
2023/01/11 07:54:08;;;;;;;2.03;1.17;;;;;;;;;;5044443;28;20201;-76
2023/01/11 07:56:34;;;;;;;3.30;1.90;;;;;;;;;;5031932;28;20285;-76
2023/01/11 07:59:00;;;;;;;1.43;1.10;;;;;;;;;;5027792;28;20251;-76
2023/01/11 08:01:26;;;;;;;2.70;1.83;;;;;;;;;;5040977;28;20190;-75
2023/01/11 08:03:53;;;;;;;2.80;1.40;;;;;;;;;;5033902;28;20178;-76
2023/01/11 08:06:19;;;;;;;2.07;1.40;;;;;;;;;;5027607;28;20700;-75
2023/01/11 08:08:45;;;;;;;2.27;1.30;;;;;;;;;;5025765;28;20186;-76
2023/01/11 08:16:41;;;;;;;2.23;1.30;;;;;;;;;;5027616;28;20266;-76
2023/01/11 08:19:07;;;;;;;1.33;1.13;;;;;;;;;;5022947;28;20178;-75
2023/01/11 08:21:33;;;;;;;4.00;1.20;;;;;;;;;;5028850;28;20187;-76
2023/01/11 08:23:59;;;;;;;1.10;1.00;;;;;;;;;;5029222;28;20175;-76
2023/01/11 08:26:26;;;;;;;2.37;1.40;;;;;;;;;;5026002;28;20233;-76
2023/01/11 08:28:53;;;;;;;1.10;1.00;;;;;;;;;;5023061;28;20274;-76
2023/01/11 08:31:19;;;;;;;1.90;1.00;;;;;;;;;;5027689;28;20201;-76
2023/01/11 08:33:45;;;;;;;2.40;0.90;;;;;;;;;;5027334;28;20218;-76
2023/01/11 08:36:11;;;;;;;1.43;1.00;;;;;;;;;;5024542;28;20271;-76
2023/01/11 08:38:38;;;;;;;2.40;1.07;;;;;;;;;;5006475;28;20194;-76
2023/01/11 08:41:09;;;;;;;1.03;0.90;;;;;;;;;;5026873;28;20217;-76
2023/01/11 08:43:39;;;;;;;1.03;0.90;;;;;;;;;;5027623;28;20254;-76
2023/01/11 08:46:05;;;;;;;2.10;1.90;;;;;;;;;;5021757;28;20685;-75
2023/01/11 08:48:32;;;;;;;1.20;1.10;;;;;;;;;;5026725;28;20608;-76
2023/01/11 08:50:58;;;;;;;1.30;1.20;;;;;;;;;;5026654;28;20239;-76
2023/01/11 08:53:24;;;;;;;3.13;1.27;;;;;;;;;;5025125;28;20187;-75
2023/01/11 08:55:51;;;;;;;2.80;1.17;;;;;;;;;;5025252;28;20222;-76
2023/01/11 08:58:18;;;;;;;2.50;1.33;;;;;;;;;;5026650;28;20632;-75
2023/01/11 09:00:45;;;;;;;4.17;1.40;;;;;;;;;;5026988;28;20525;-76
2023/01/11 09:03:12;;;;;;;2.70;1.40;;;;;;;;;;5024205;28;20658;-75
2023/01/11 09:05:38;;;;;;;3.27;1.20;;;;;;;;;;5023812;28;20237;-76
2023/01/11 09:08:05;;;;;;;2.40;1.10;;;;;;;;;;5008029;28;20409;-75
2023/01/11 09:10:32;;;;;;;2.77;1.10;;;;;;;;;;5026366;28;20174;-76
2023/01/11 09:12:58;;;;;;;1.10;1.00;;;;;;;;;;5025018;28;20209;-76
2023/01/11 09:15:25;;;;;;;2.47;1.33;;;;;;;;;;5025834;28;20389;-76
2023/01/11 09:17:51;;;;;;;1.40;1.30;;;;;;;;;;5022731;28;20190;-76
2023/01/11 09:20:21;;;;;;;1.40;1.30;;;;;;;;;;5026015;28;20557;-76
2023/01/11 09:22:48;;;;;;;1.40;1.17;;;;;;;;;;5024981;28;20182;-75
2023/01/11 09:25:14;;;;;;;1.13;0.93;;;;;;;;;;5023725;28;20206;-76
2023/01/11 09:27:47;;;;;;;1.20;1.10;;;;;;;;;;5024651;28;20650;-76
2023/01/11 09:30:14;;;;;;;1.30;1.10;;;;;;;;;;5027766;28;20190;-75
2023/01/11 09:32:41;;;;;;;1.33;0.93;;;;;;;;;;5026055;28;20237;-76
2023/01/11 09:35:07;;;;;;;1.33;0.90;;;;;;;;;;5026678;28;20209;-76
2023/01/11 09:37:38;;;;;;;1.60;1.00;;;;;;;;;;5024285;28;20213;-76
2023/01/11 09:40:05;;;;;;;2.30;0.93;;;;;;;;;;5009772;28;20225;-76
2023/01/11 09:42:39;;;;;;;1.73;1.27;;;;;;;;;;5024881;28;20186;-76
2023/01/11 09:45:17;;;;;;;2.50;1.40;;;;;;;;;;5027131;28;20650;-76
2023/01/11 09:48:14;;;;;;;1.90;1.50;;;;;;;;;;5026192;28;20582;-76
2023/01/11 09:50:44;;;;;;;3.00;1.50;;;;;;;;;;5026197;28;20217;-75
2023/01/11 09:53:16;;;;;;;2.17;1.20;;;;;;;;;;5027684;28;20278;-75
2023/01/11 09:55:45;;;;;;;2.03;1.20;;;;;;;;;;5022671;28;20844;-76
2023/01/11 09:58:28;;;;;;;1.97;1.10;;;;;;;;;;5006978;28;20193;-75
2023/01/11 10:01:05;;;;;;;1.20;1.10;;;;;;;;;;5024167;28;20205;-76
2023/01/11 10:03:34;;;;;;;2.83;1.30;;;;;;;;;;5019699;28;20297;-76
2023/01/11 10:06:17;;;;;;;1.30;1.20;;;;;;;;;;5026243;28;20638;-76
2023/01/11 10:08:54;;;;;;;4.03;1.17;;;;;;;;;;5023348;28;20710;-75
2023/01/11 10:11:30;;;;;;;1.80;1.20;;;;;;;;;;5023548;28;20436;-76
2023/01/11 10:14:02;;;;;;;1.30;1.20;;;;;;;;;;4992250;28;20217;-76
2023/01/11 10:16:35;;;;;;;1.30;1.20;;;;;;;;;;5024356;28;20263;-75
2023/01/11 10:19:17;;;;;;;2.87;1.80;;;;;;;;;;5018976;28;20575;-75
2023/01/11 10:21:59;;;;;;;1.63;1.30;;;;;;;;;;5023570;28;20186;-75
2023/01/11 10:24:52;;;;;;;2.73;1.20;;;;;;;;;;5029811;28;20186;-73
2023/01/11 10:27:21;;;;;;;1.73;1.20;;;;;;;;;;5021088;28;20665;-74
2023/01/11 10:32:52;;;;;;;2.07;1.30;;;;;;;;;;4997262;28;20198;-73
2023/01/11 10:35:45;;;;;;;1.90;1.40;;;;;;;;;;5007640;28;20214;-74
2023/01/11 10:38:42;;;;;;;1.87;1.30;;;;;;;;;;5020548;28;20218;-73
2023/01/11 10:41:18;;;;;;;1.53;1.13;;;;;;;;;;5025237;28;20179;-73
2023/01/11 10:43:47;;;;;;;2.17;1.50;;;;;;;;;;5008316;28;20580;-74
2023/01/11 10:46:16;;;;;;;1.87;1.30;;;;;;;;;;5026991;28;20577;-73
2023/01/11 10:48:43;;;;;;;1.63;1.20;;;;;;;;;;5022118;28;20717;-75
2023/01/11 10:51:18;;;;;;;2.00;1.30;;;;;;;;;;5024118;28;20182;-72
2023/01/11 10:53:53;;;;;;;1.33;1.17;;;;;;;;;;5024556;28;20802;-72
2023/01/11 10:56:37;;;;;;;1.70;1.20;;;;;;;;;;5018416;28;20276;-72
2023/01/11 10:59:09;;;;;;;1.80;1.30;;;;;;;;;;5023529;28;20593;-73
2023/01/11 11:01:49;;;;;;;2.53;1.50;;;;;;;;;;5021342;28;20245;-73
2023/01/11 11:04:30;;;;;;;2.90;1.57;;;;;;;;;;5022541;28;20683;-72
2023/01/11 11:07:15;;;;;;;1.50;1.30;;;;;;;;;;5016805;28;20199;-72
2023/01/11 11:09:41;;;;;;;1.80;1.40;;;;;;;;;;5029239;28;20175;-72
2023/01/11 11:12:22;;;;;;;2.90;1.50;;;;;;;;;;5026187;28;20600;-72
2023/01/11 11:15:02;;;;;;;3.07;1.40;;;;;;;;;;5023243;28;20210;-72
2023/01/11 11:17:32;;;;;;;2.10;1.30;;;;;;;;;;5022671;28;20579;-72
2023/01/11 11:19:59;;;;;;;4.13;1.30;;;;;;;;;;5026722;28;20194;-72
2023/01/11 11:22:25;;;;;;;1.67;1.20;;;;;;;;;;5027654;28;20186;-72
2023/01/11 11:24:52;;;;;;;2.07;1.30;;;;;;;;;;5029705;28;20315;-72
2023/01/11 11:27:21;;;;;;;2.27;1.43;;;;;;;;;;5024529;28;20190;-72
2023/01/11 11:29:52;;;;;;;4.00;1.53;;;;;;;;;;5028117;28;20183;-72
2023/01/11 11:32:30;;;;;;;2.83;1.63;;;;;;;;;;5014931;28;20186;-72
2023/01/11 11:34:56;;;;;;;3.27;1.73;;;;;;;;;;5028163;28;20209;-72
2023/01/11 11:37:24;;;;;;;3.10;1.73;;;;;;;;;;5024422;28;20182;-72
2023/01/11 11:39:51;;;;;;;1.67;1.30;;;;;;;;;;5025441;28;20252;-72
2023/01/11 11:42:20;;;;;;;2.17;1.53;;;;;;;;;;5026809;28;20849;-72
2023/01/11 11:45:04;;;;;;;1.87;1.53;;;;;;;;;;5026294;28;20375;-72
2023/01/11 11:47:30;;;;;;;1.63;1.50;;;;;;;;;;5015591;28;20834;-72
2023/01/11 11:50:16;;;;;;;2.30;1.57;;;;;;;;;;5025273;28;20657;-73
2023/01/11 11:52:43;;;;;;;1.67;1.57;;;;;;;;;;5023160;28;20273;-73
2023/01/11 11:55:09;;;;;;;3.03;1.57;;;;;;;;;;5024942;28;20198;-72
2023/01/11 11:57:39;;;;;;;2.20;1.53;;;;;;;;;;5025778;28;20179;-73
2023/01/11 12:00:08;;;;;;;2.00;1.40;;;;;;;;;;5026888;28;20174;-72
2023/01/11 12:02:35;;;;;;;2.07;1.37;;;;;;;;;;5027079;28;20187;-72
2023/01/11 12:05:06;;;;;;;3.63;1.40;;;;;;;;;;5026201;28;20211;-72
2023/01/11 12:07:36;;;;;;;2.37;1.37;;;;;;;;;;5025232;28;20558;-72
2023/01/11 12:10:06;;;;;;;1.60;1.37;;;;;;;;;;5023221;28;20231;-73
2023/01/11 12:12:33;;;;;;;3.90;1.67;;;;;;;;;;5024297;28;20183;-72
2023/01/11 12:15:18;;;;;;;1.73;1.10;;;;;;;;;;5019533;28;20210;-72
2023/01/11 12:17:45;;;;;;;1.37;1.20;;;;;;;;;;5026901;28;20167;-73
2023/01/11 12:20:23;;;;;;;1.20;1.10;;;;;;;;;;5024935;28;20517;-72
2023/01/11 12:22:49;;;;;;;2.47;1.30;;;;;;;;;;5023808;28;20258;-72
2023/01/11 12:25:20;;;;;;;2.87;1.53;;;;;;;;;;5020737;28;20194;-73
2023/01/11 12:28:05;;;;;;;1.83;1.53;;;;;;;;;;5024723;28;20190;-72
2023/01/11 12:30:31;;;;;;;2.23;1.70;;;;;;;;;;5024679;28;20197;-72
2023/01/11 12:33:04;;;;;;;1.90;1.50;;;;;;;;;;5027104;28;20355;-72
2023/01/11 12:35:38;;;;;;;3.57;2.00;;;;;;;;;;5023185;28;20253;-72
2023/01/11 12:38:10;;;;;;;2.33;1.60;;;;;;;;;;5027799;28;20189;-72
2023/01/11 12:40:58;;;;;;;2.57;1.60;;;;;;;;;;5024763;28;20190;-73
2023/01/11 12:43:43;;;;;;;1.47;1.37;;;;;;;;;;5018400;28;20267;-73
2023/01/11 12:46:12;;;;;;;3.20;1.47;;;;;;;;;;5025538;28;20645;-72
2023/01/11 12:48:48;;;;;;;3.43;1.60;;;;;;;;;;5019210;28;20221;-72
2023/01/11 12:51:37;;;;;;;2.00;1.70;;;;;;;;;;5022313;28;20193;-72
2023/01/11 12:54:09;;;;;;;2.67;1.60;;;;;;;;;;5025930;28;20579;-73
2023/01/11 12:56:49;;;;;;;3.03;1.77;;;;;;;;;;5024811;28;20217;-72
2023/01/11 12:59:29;;;;;;;2.37;1.90;;;;;;;;;;5026339;28;20792;-72
2023/01/11 13:02:14;;;;;;;2.83;1.70;;;;;;;;;;5022828;28;20186;-73
2023/01/11 13:04:58;;;;;;;3.17;1.60;;;;;;;;;;5024653;28;20289;-72
2023/01/11 13:07:48;;;;;;;1.70;1.57;;;;;;;;;;5022092;28;20221;-72
2023/01/11 13:10:20;;;;;;;1.90;1.60;;;;;;;;;;5006633;28;20202;-72
2023/01/11 13:12:55;;;;;;;1.83;1.40;;;;;;;;;;5021691;28;20219;-72
2023/01/11 13:15:27;;;;;;;1.93;1.50;;;;;;;;;;5007985;28;20222;-72
2023/01/11 13:18:07;;;;;;;2.83;1.50;;;;;;;;;;5022968;28;20540;-72
2023/01/11 13:20:52;;;;;;;3.23;1.50;;;;;;;;;;5025023;28;20225;-72
2023/01/11 13:23:23;;;;;;;2.10;1.90;;;;;;;;;;5027527;28;20229;-72
2023/01/11 13:25:51;;;;;;;2.37;2.00;;;;;;;;;;5026248;28;20633;-72
2023/01/11 13:28:21;;;;;;;2.77;1.97;;;;;;;;;;5022245;28;20198;-72
2023/01/11 13:30:47;;;;;;;3.43;1.80;;;;;;;;;;5022845;28;20191;-72
2023/01/11 13:33:18;;;;;;;3.03;1.90;;;;;;;;;;5026222;28;20360;-72
2023/01/11 13:35:50;;;;;;;2.93;2.10;;;;;;;;;;5024944;28;20300;-72
2023/01/11 13:38:34;;;;;;;2.27;1.83;;;;;;;;;;5024930;28;20193;-73
2023/01/11 13:41:07;;;;;;;2.90;1.60;;;;;;;;;;5037921;28;20197;-72
2023/01/11 13:43:40;;;;;;;3.10;1.80;;;;;;;;;;5021065;28;20191;-72
2023/01/11 13:46:16;;;;;;;2.47;1.90;;;;;;;;;;5016891;28;20226;-72
2023/01/11 13:48:49;;;;;;;2.23;1.90;;;;;;;;;;5018868;28;20182;-72
2023/01/11 13:51:27;;;;;;;2.67;1.90;;;;;;;;;;5024736;28;20186;-73
2023/01/11 13:54:01;;;;;;;3.23;2.13;;;;;;;;;;5024279;28;20240;-72
2023/01/11 13:56:30;;;;;;;3.37;2.10;;;;;;;;;;5021256;28;20288;-72
2023/01/11 13:59:08;;;;;;;3.40;2.10;;;;;;;;;;5020696;28;20662;-72
2023/01/11 14:01:49;;;;;;;3.37;2.13;;;;;;;;;;5020316;28;20195;-73
2023/01/11 14:04:15;;;;;;;5.80;2.90;;;;;;;;;;5017240;28;20669;-72
2023/01/11 14:07:04;;;;;;;6.57;5.97;;;;;;;;;;5018560;28;20194;-73
2023/01/11 14:09:33;;;;;;;5.97;4.50;;;;;;;;;;5013432;28;20570;-72
2023/01/11 14:12:05;;;;;;;3.20;2.80;;;;;;;;;;5025511;28;20201;-72
2023/01/11 14:14:49;;;;;;;2.50;2.30;;;;;;;;;;5024387;28;20581;-73
2023/01/11 14:17:35;;;;;;;2.60;2.30;;;;;;;;;;5019057;28;20182;-73
2023/01/11 14:20:04;;;;;;;5.37;2.60;;;;;;;;;;5007087;28;20189;-73
2023/01/11 14:22:36;;;;;;;4.50;2.80;;;;;;;;;;5029259;28;20232;-72
2023/01/11 14:25:07;;;;;;;4.63;2.50;;;;;;;;;;5025038;28;20799;-73
2023/01/11 14:27:51;;;;;;;3.40;2.30;;;;;;;;;;5023536;28;20183;-72
2023/01/11 14:30:36;;;;;;;2.40;2.00;;;;;;;;;;5026019;28;20213;-73
2023/01/11 14:33:02;;;;;;;4.43;2.87;;;;;;;;;;5026097;28;20198;-72
2023/01/11 14:35:47;;;;;;;4.90;3.03;;;;;;;;;;5026483;28;20289;-72
2023/01/11 14:38:22;;;;;;;3.00;2.70;;;;;;;;;;5018189;28;20182;-72
2023/01/11 14:40:51;;;;;;;2.20;2.00;;;;;;;;;;5024961;28;20194;-72
2023/01/11 14:43:17;;;;;;;2.40;1.73;;;;;;;;;;5023636;28;20757;-72
2023/01/11 14:45:50;;;;;;;2.57;2.03;;;;;;;;;;5023887;28;20210;-72
2023/01/11 14:48:21;;;;;;;3.57;1.90;;;;;;;;;;5018514;28;20251;-72
2023/01/11 14:51:01;;;;;;;2.80;1.93;;;;;;;;;;5026701;28;20187;-73
2023/01/11 14:53:30;;;;;;;4.90;3.60;;;;;;;;;;5029389;28;20187;-72
2023/01/11 14:55:56;;;;;;;3.27;2.40;;;;;;;;;;5008942;28;20218;-73
2023/01/11 14:58:27;;;;;;;2.20;2.00;;;;;;;;;;5031680;28;20175;-73
2023/01/11 15:00:53;;;;;;;2.27;2.00;;;;;;;;;;5029787;28;20583;-73
2023/01/11 15:03:20;;;;;;;2.27;1.90;;;;;;;;;;5030047;28;20201;-73
2023/01/11 15:05:48;;;;;;;3.30;3.00;;;;;;;;;;5028466;28;20209;-73
2023/01/11 15:08:14;;;;;;;5.53;4.97;;;;;;;;;;5027305;28;20182;-73
2023/01/11 15:10:54;;;;;;;2.67;2.33;;;;;;;;;;5028808;28;20182;-73
2023/01/11 15:13:28;;;;;;;8.00;4.57;;;;;;;;;;5027809;28;20654;-72
2023/01/11 15:18:54;;;;;;;4.13;2.93;;;;;;;;;;5022418;28;20213;-73
2023/01/11 15:21:26;;;;;;;4.70;3.00;;;;;;;;;;5023662;28;20607;-73
2023/01/11 15:23:57;;;;;;;3.30;2.20;;;;;;;;;;5009509;28;20187;-73
2023/01/11 15:26:24;;;;;;;3.63;2.57;;;;;;;;;;5027395;28;20229;-72
2023/01/11 15:28:58;;;;;;;5.13;2.40;;;;;;;;;;5026892;28;20186;-72
2023/01/11 15:31:32;;;;;;;3.63;2.07;;;;;;;;;;5029796;28;20178;-72